Time;durP1;ratioP1;P1;durP2;ratioP2;P2;SDS_P1;SDS_P2;PMS_P1;PMS_P2;Temp;Humidity;BMP_temperature;BMP_pressure;BME280_temperature;BME280_humidity;BME280_pressure;Samples;Min_cycle;Max_cycle;Signal;HPM_P1;HPM_P2
2021/01/26 00:02:25;;;;;;;;;;;;;;;16.01;36.82;99546.25;4400976;32;20687;-50
2021/01/26 00:04:51;;;;;;;;;;;;;;;15.98;36.89;99540.06;4410326;32;19950;-48
2021/01/26 00:07:16;;;;;;;;;;;;;;;16.00;36.86;99546.22;4416969;32;19960;-46
2021/01/26 00:09:42;;;;;;;;;;;;;;;15.93;36.95;99545.22;4416293;32;20302;-47
2021/01/26 00:12:08;;;;;;;;;;;;;;;15.94;36.98;99547.00;4416849;32;19989;-51
2021/01/26 00:14:34;;;;;;;;;;;;;;;16.03;36.75;99548.88;4417354;32;19950;-46
2021/01/26 00:17:00;;;;;;;;;;;;;;;16.02;36.80;99547.12;4416561;32;20010;-51
2021/01/26 00:19:26;;;;;;;;;;;;;;;15.95;36.92;99537.38;4411594;32;19981;-51
2021/01/26 00:21:52;;;;;;;;;;;;;;;15.92;36.98;99532.97;4415482;32;20356;-48
2021/01/26 00:24:18;;;;;;;;;;;;;;;15.98;36.85;99537.44;4416659;32;20033;-47
2021/01/26 00:26:43;;;;;;;;;;;;;;;15.90;37.03;99539.03;4417061;32;19994;-48
2021/01/26 00:29:09;;;;;;;;;;;;;;;15.90;37.04;99539.94;4415074;32;19965;-49
2021/01/26 00:31:35;;;;;;;;;;;;;;;15.83;37.17;99535.37;4400571;32;20339;-47
2021/01/26 00:34:01;;;;;;;;;;;;;;;15.83;37.16;99533.66;4401577;32;19962;-47
2021/01/26 00:36:27;;;;;;;;;;;;;;;15.84;37.14;99538.03;4416647;32;20488;-49
2021/01/26 00:38:53;;;;;;;;;;;;;;;15.83;37.15;99543.25;4416873;32;19958;-47
2021/01/26 00:41:19;;;;;;;;;;;;;;;15.90;37.00;99539.94;4402358;32;19970;-47
2021/01/26 00:43:45;;;;;;;;;;;;;;;15.95;36.96;99542.63;4407997;32;19958;-48
2021/01/26 00:46:11;;;;;;;;;;;;;;;15.85;37.09;99541.53;4416528;32;19953;-51
2021/01/26 00:48:36;;;;;;;;;;;;;;;15.89;37.01;99548.63;4416238;32;20004;-48
2021/01/26 00:51:03;;;;;;;;;;;;;;;15.78;37.25;99544.94;4405297;32;19984;-49
2021/01/26 00:53:29;;;;;;;;;;;;;;;15.74;37.28;99544.88;4403610;32;19976;-45
2021/01/26 00:55:54;;;;;;;;;;;;;;;15.72;37.34;99546.56;4417614;32;20000;-47
2021/01/26 00:58:20;;;;;;;;;;;;;;;15.83;37.15;99543.25;4415547;32;19958;-46
2021/01/26 01:00:46;;;;;;;;;;;;;;;15.84;37.08;99540.66;4408044;32;20576;-47
2021/01/26 01:03:12;;;;;;;;;;;;;;;15.83;37.13;99538.00;4401376;32;19988;-46
2021/01/26 01:05:38;;;;;;;;;;;;;;;15.85;37.07;99537.19;4408419;32;20004;-49
2021/01/26 01:08:04;;;;;;;;;;;;;;;15.88;36.99;99531.13;4416671;32;20070;-48
2021/01/26 01:10:30;;;;;;;;;;;;;;;15.93;36.87;99550.47;4410886;32;19984;-51
2021/01/26 01:12:56;;;;;;;;;;;;;;;15.95;36.79;99543.50;4403066;32;19942;-53
2021/01/26 01:15:21;;;;;;;;;;;;;;;15.88;36.96;99557.38;4416036;32;19958;-48
2021/01/26 01:17:47;;;;;;;;;;;;;;;15.89;36.90;99548.63;4417570;32;19972;-46
2021/01/26 01:20:13;;;;;;;;;;;;;;;15.86;36.98;99544.19;4415419;32;20342;-47
2021/01/26 01:22:39;;;;;;;;;;;;;;;15.82;37.04;99547.62;4404734;32;19958;-54
2021/01/26 01:25:05;;;;;;;;;;;;;;;15.84;37.04;99540.66;4405146;32;19961;-50
2021/01/26 01:27:31;;;;;;;;;;;;;;;15.73;37.21;99543.09;4419554;32;19949;-47
2021/01/26 01:29:57;;;;;;;;;;;;;;;15.79;37.15;99547.56;4419044;32;20331;-45
2021/01/26 01:32:23;;;;;;;;;;;;;;;15.92;36.84;99532.97;4414675;32;20033;-47
2021/01/26 01:34:49;;;;;;;;;;;;;;;15.92;36.83;99540.84;4412734;32;20008;-46
2021/01/26 01:37:14;;;;;;;;;;;;;;;15.88;36.92;99531.97;4409475;32;19997;-46
2021/01/26 01:39:40;;;;;;;;;;;;;;;15.84;37.05;99535.41;4410436;32;19958;-54
2021/01/26 01:42:06;;;;;;;;;;;;;;;15.81;37.05;99538.00;4410820;32;19934;-50
2021/01/26 01:44:32;;;;;;;;;;;;;;;15.79;37.08;99541.44;4412216;32;20395;-49
2021/01/26 01:46:59;;;;;;;;;;;;;;;15.80;37.08;99549.31;4412004;32;19989;-48
2021/01/26 01:49:25;;;;;;;;;;;;;;;15.81;37.09;99544.97;4409415;32;19954;-52
2021/01/26 01:51:51;;;;;;;;;;;;;;;15.74;37.21;99541.34;4411659;32;20346;-53
2021/01/26 01:54:17;;;;;;;;;;;;;;;15.73;37.22;99553.59;4410738;32;19954;-47
2021/01/26 01:56:43;;;;;;;;;;;;;;;15.78;37.12;99550.19;4411737;32;19954;-47
2021/01/26 01:59:09;;;;;;;;;;;;;;;15.82;37.04;99546.75;4409122;32;20412;-49
2021/01/26 02:01:35;;;;;;;;;;;;;;;15.93;36.77;99545.22;4412969;32;19972;-45
2021/01/26 02:04:01;;;;;;;;;;;;;;;15.92;36.81;99556.59;4411390;32;19980;-51
2021/01/26 02:06:26;;;;;;;;;;;;;;;15.85;36.97;99554.66;4409979;32;19983;-47
2021/01/26 02:08:54;;;;;;;;;;;;;;;15.89;36.88;99559.13;4412619;32;19946;-48
2021/01/26 02:11:19;;;;;;;;;;;;;;;15.94;36.79;99551.37;4411399;32;19988;-47
2021/01/26 02:13:45;;;;;;;;;;;;;;;15.80;37.06;99558.97;4411831;32;20327;-50
2021/01/26 02:16:11;;;;;;;;;;;;;;;15.84;36.97;99551.19;4410473;32;19946;-49
2021/01/26 02:18:40;;;;;;;;;;;;;;;15.81;37.03;99556.38;4410605;32;19961;-46
2021/01/26 02:21:06;;;;;;;;;;;;;;;15.80;36.99;99546.69;4414669;32;19963;-47
2021/01/26 02:23:32;;;;;;;;;;;;;;;15.82;36.97;99552.00;4410717;32;20028;-49
2021/01/26 02:25:58;;;;;;;;;;;;;;;15.85;36.94;99545.06;4411766;32;20040;-50
2021/01/26 02:28:24;;;;;;;;;;;;;;;15.90;36.86;99549.53;4409251;32;20347;-50
2021/01/26 02:30:50;;;;;;;;;;;;;;;15.96;36.66;99552.28;4409946;32;19982;-49
2021/01/26 02:33:15;;;;;;;;;;;;;;;15.97;36.64;99543.53;4412513;32;19990;-48
2021/01/26 02:35:41;;;;;;;;;;;;;;;15.92;36.77;99548.72;4408973;32;19950;-46
2021/01/26 02:38:07;;;;;;;;;;;;;;;15.80;37.01;99545.84;4409140;32;19972;-47
2021/01/26 02:40:33;;;;;;;;;;;;;;;15.76;37.05;99546.66;4409542;32;19998;-48
2021/01/26 02:42:59;;;;;;;;;;;;;;;15.80;36.98;99548.47;4410056;32;19983;-48
2021/01/26 02:45:25;;;;;;;;;;;;;;;15.79;37.02;99546.69;4409943;32;20440;-48
2021/01/26 02:47:51;;;;;;;;;;;;;;;15.76;37.11;99538.78;4410317;32;19965;-49
2021/01/26 02:50:17;;;;;;;;;;;;;;;15.81;36.98;99545.88;4409375;32;19950;-46
2021/01/26 02:52:43;;;;;;;;;;;;;;;15.80;37.00;99535.34;4409910;32;20013;-49
2021/01/26 02:55:08;;;;;;;;;;;;;;;15.85;36.91;99546.78;4408535;32;19962;-47
2021/01/26 02:57:34;;;;;;;;;;;;;;;15.79;37.02;99544.06;4409144;32;19950;-47
2021/01/26 03:00:00;;;;;;;;;;;;;;;15.80;36.97;99544.06;4409740;32;20385;-46
2021/01/26 03:02:26;;;;;;;;;;;;;;;15.79;37.04;99544.06;4415889;32;20001;-47
2021/01/26 03:04:52;;;;;;;;;;;;;;;15.76;37.06;99530.91;4418495;32;20315;-49
2021/01/26 03:07:18;;;;;;;;;;;;;;;15.79;36.98;99537.06;4413520;32;19982;-48
2021/01/26 03:09:44;;;;;;;;;;;;;;;15.76;37.04;99534.38;4403173;32;19938;-49
2021/01/26 03:12:10;;;;;;;;;;;;;;;15.79;37.01;99544.06;4405997;32;19958;-47
2021/01/26 03:14:36;;;;;;;;;;;;;;;15.75;37.06;99545.75;4418827;32;19975;-46
2021/01/26 03:17:01;;;;;;;;;;;;;;;15.73;37.17;99547.47;4418598;32;19934;-50
2021/01/26 03:19:27;;;;;;;;;;;;;;;15.71;37.19;99552.69;4415950;32;20565;-45
2021/01/26 03:21:53;;;;;;;;;;;;;;;15.74;37.07;99558.00;4418297;32;19966;-48
2021/01/26 03:24:19;;;;;;;;;;;;;;;15.76;37.06;99557.16;4401608;32;19990;-46
2021/01/26 03:26:45;;;;;;;;;;;;;;;15.74;37.12;99558.00;4402740;32;20375;-49
2021/01/26 03:29:11;;;;;;;;;;;;;;;15.73;37.11;99563.22;4415125;32;19954;-47
2021/01/26 03:31:37;;;;;;;;;;;;;;;15.66;37.27;99563.94;4417090;32;20017;-54
2021/01/26 03:34:03;;;;;;;;;;;;;;;15.69;37.18;99557.03;4418150;32;19954;-47
2021/01/26 03:36:29;;;;;;;;;;;;;;;15.71;37.17;99565.81;4418200;32;19949;-49
2021/01/26 03:38:55;;;;;;;;;;;;;;;15.67;37.24;99558.75;4416997;32;20017;-48
2021/01/26 03:41:21;;;;;;;;;;;;;;;15.58;37.42;99553.31;4418273;32;20334;-48
2021/01/26 03:43:47;;;;;;;;;;;;;;;15.64;37.30;99557.78;4414818;32;19938;-48
2021/01/26 03:46:12;;;;;;;;;;;;;;;15.69;37.19;99567.53;4418068;32;19950;-45
2021/01/26 03:48:38;;;;;;;;;;;;;;;15.74;37.07;99550.13;4417995;32;20300;-50
2021/01/26 03:51:04;;;;;;;;;;;;;;;15.71;37.13;99552.69;4417964;32;19960;-49
2021/01/26 03:53:30;;;;;;;;;;;;;;;15.77;37.02;99558.91;4410519;32;19961;-51
2021/01/26 03:55:56;;;;;;;;;;;;;;;15.70;37.19;99550.91;4403038;32;19973;-46
2021/01/26 03:58:22;;;;;;;;;;;;;;;15.79;37.00;99557.19;4408655;32;20203;-46
2021/01/26 04:00:48;;;;;;;;;;;;;;;15.66;37.21;99559.59;4417443;32;19978;-50
2021/01/26 04:03:14;;;;;;;;;;;;;;;15.67;37.19;99563.97;4416820;32;19995;-46
2021/01/26 04:05:40;;;;;;;;;;;;;;;15.70;37.16;99557.91;4418272;32;19954;-46
2021/01/26 04:08:06;;;;;;;;;;;;;;;15.77;37.02;99558.91;4417680;32;19938;-46
2021/01/26 04:10:32;;;;;;;;;;;;;;;15.74;37.05;99570.22;4416205;32;19950;-46
2021/01/26 04:12:57;;;;;;;;;;;;;;;15.75;37.07;99577.25;4417557;32;19958;-47
2021/01/26 04:15:23;;;;;;;;;;;;;;;15.69;37.19;99579.78;4417592;32;19956;-51
2021/01/26 04:17:49;;;;;;;;;;;;;;;15.68;37.20;99575.34;4417702;32;19968;-48
2021/01/26 04:20:15;;;;;;;;;;;;;;;15.63;37.28;99577.91;4416817;32;20421;-46
2021/01/26 04:22:41;;;;;;;;;;;;;;;15.57;37.43;99583.94;4418213;32;19954;-48
2021/01/26 04:25:07;;;;;;;;;;;;;;;15.58;37.38;99590.03;4403240;32;19943;-47
2021/01/26 04:27:33;;;;;;;;;;;;;;;15.57;37.44;99593.53;4402153;32;19943;-47
2021/01/26 04:29:58;;;;;;;;;;;;;;;15.54;37.47;99589.09;4415506;32;20023;-47
2021/01/26 04:32:24;;;;;;;;;;;;;;;15.57;37.44;99596.16;4417689;32;19972;-47
2021/01/26 04:34:50;;;;;;;;;;;;;;;15.76;37.02;99596.53;4418005;32;19946;-46
2021/01/26 04:37:16;;;;;;;;;;;;;;;15.74;37.03;99602.63;4417581;32;19950;-47
2021/01/26 04:39:42;;;;;;;;;;;;;;;15.68;37.17;99605.13;4406920;32;19962;-47
2021/01/26 04:42:08;;;;;;;;;;;;;;;15.72;37.08;99609.56;4402674;32;19974;-47
2021/01/26 04:44:34;;;;;;;;;;;;;;;15.79;36.96;99604.44;4402770;32;19950;-46
2021/01/26 04:47:00;;;;;;;;;;;;;;;15.76;37.04;99599.16;4402768;32;19954;-49
2021/01/26 04:49:26;;;;;;;;;;;;;;;15.78;37.00;99600.06;4409107;32;20334;-50
2021/01/26 04:51:51;;;;;;;;;;;;;;;15.81;36.89;99586.97;4418007;32;20003;-45
2021/01/26 04:54:17;;;;;;;;;;;;;;;15.84;36.87;99592.28;4413693;32;20265;-48
2021/01/26 04:56:43;;;;;;;;;;;;;;;15.79;36.97;99599.19;4405309;32;19954;-47
2021/01/26 04:59:09;;;;;;;;;;;;;;;15.59;37.36;99602.31;4409409;32;20327;-52
2021/01/26 05:01:35;;;;;;;;;;;;;;;15.45;37.66;99600.31;4420889;32;19976;-45
2021/01/26 05:04:01;;;;;;;;;;;;;;;15.51;37.57;99599.53;4419849;32;19954;-50
2021/01/26 05:06:27;;;;;;;;;;;;;;;15.42;37.74;99600.25;4419141;32;19955;-46
2021/01/26 05:08:53;;;;;;;;;;;;;;;15.56;37.50;99605.78;4417396;32;20042;-52
2021/01/26 05:11:19;;;;;;;;;;;;;;;15.49;37.62;99610.84;4404665;32;19938;-48
2021/01/26 05:13:45;;;;;;;;;;;;;;;15.47;37.66;99613.47;4411512;32;20538;-48
2021/01/26 05:16:11;;;;;;;;;;;;;;;15.47;37.66;99623.97;4420047;32;19998;-48
2021/01/26 05:18:36;;;;;;;;;;;;;;;15.53;37.58;99612.69;4418798;32;20322;-47
2021/01/26 05:21:02;;;;;;;;;;;;;;;15.51;37.58;99603.91;4405254;32;20010;-49
2021/01/26 05:23:28;;;;;;;;;;;;;;;15.62;37.37;99602.41;4405190;32;19987;-47
2021/01/26 05:25:55;;;;;;;;;;;;;;;15.62;37.33;99596.25;4418548;32;19950;-48
2021/01/26 05:28:20;;;;;;;;;;;;;;;15.67;37.26;99602.47;4419415;32;20002;-49
2021/01/26 05:30:54;;;;;;;;;;;;;;;15.65;37.28;99606.81;4408289;32;19981;-45
2021/01/26 05:33:20;;;;;;;;;;;;;;;15.66;37.27;99604.22;4410699;32;20483;-46
2021/01/26 05:35:46;;;;;;;;;;;;;;;15.61;37.39;99605.84;4420230;32;19957;-46
2021/01/26 05:38:12;;;;;;;;;;;;;;;15.70;37.22;99599.91;4418312;32;19965;-46
2021/01/26 05:40:37;;;;;;;;;;;;;;;15.72;37.12;99599.06;4419177;32;19991;-49
2021/01/26 05:43:03;;;;;;;;;;;;;;;15.83;36.93;99601.91;4418286;32;20386;-46
2021/01/26 05:45:29;;;;;;;;;;;;;;;15.73;37.08;99606.09;4420094;32;19938;-48
2021/01/26 05:47:55;;;;;;;;;;;;;;;15.73;37.08;99611.34;4419042;32;19968;-51
2021/01/26 05:50:21;;;;;;;;;;;;;;;15.69;37.22;99619.16;4411711;32;20304;-54
2021/01/26 05:52:47;;;;;;;;;;;;;;;15.70;37.20;99619.16;4405086;32;19965;-47
2021/01/26 05:55:13;;;;;;;;;;;;;;;15.75;37.08;99619.25;4409379;32;19960;-46
2021/01/26 05:57:39;;;;;;;;;;;;;;;15.70;37.19;99608.66;4410080;32;19986;-46
2021/01/26 06:00:04;;;;;;;;;;;;;;;15.58;37.44;99611.94;4408651;32;19938;-51
2021/01/26 06:02:30;;;;;;;;;;;;;;;15.60;37.42;99619.81;4414409;32;20311;-48
2021/01/26 06:04:56;;;;;;;;;;;;;;;15.59;37.36;99618.97;4417044;32;19962;-54
2021/01/26 06:07:22;;;;;;;;;;;;;;;15.48;37.56;99624.81;4418937;32;19938;-47
2021/01/26 06:09:48;;;;;;;;;;;;;;;15.40;37.78;99627.28;4417805;32;19989;-47
2021/01/26 06:12:14;;;;;;;;;;;;;;;15.42;37.74;99631.72;4412127;32;19942;-47
2021/01/26 06:14:40;;;;;;;;;;;;;;;15.41;37.75;99635.22;4418717;32;19954;-46
2021/01/26 06:17:06;;;;;;;;;;;;;;;15.46;37.66;99632.69;4403991;32;19946;-50
2021/01/26 06:19:32;;;;;;;;;;;;;;;15.50;37.61;99617.91;4402389;32;19950;-47
2021/01/26 06:21:57;;;;;;;;;;;;;;;15.50;37.70;99618.75;4415367;32;20035;-50
2021/01/26 06:24:23;;;;;;;;;;;;;;;15.48;37.72;99622.19;4411586;32;20522;-47
2021/01/26 06:26:49;;;;;;;;;;;;;;;15.26;38.18;99619.16;4412890;32;19950;-46
2021/01/26 06:29:15;;;;;;;;;;;;;;;15.12;38.45;99619.72;4400159;32;19962;-47
2021/01/26 06:31:41;;;;;;;;;;;;;;;15.21;38.30;99618.16;4413569;32;20420;-48
2021/01/26 06:34:07;;;;;;;;;;;;;;;15.28;38.16;99617.44;4417931;32;19983;-50
2021/01/26 06:36:33;;;;;;;;;;;;;;;15.31;38.09;99618.41;4413973;32;19961;-52
2021/01/26 06:38:59;;;;;;;;;;;;;;;15.22;38.30;99622.53;4416136;32;19988;-52
2021/01/26 06:41:25;;;;;;;;;;;;;;;15.24;38.27;99629.59;4416258;32;19954;-49
2021/01/26 06:43:53;;;;;;;;;;;;;;;15.29;38.12;99625.31;4414667;32;19968;-53
2021/01/26 06:46:18;;;;;;;;;;;;;;;15.22;38.26;99628.69;4415821;32;19961;-51
2021/01/26 06:48:44;;;;;;;;;;;;;;;14.83;37.81;99645.28;4415941;32;19977;-53
2021/01/26 06:51:10;;;;;;;;;;;;;;;14.43;36.04;99651.28;4410743;32;19946;-53
2021/01/26 06:53:36;;;;;;;;;;;;;;;13.94;36.69;99656.13;4401682;32;19954;-53
2021/01/26 06:56:02;;;;;;;;;;;;;;;14.08;38.77;99656.50;4406080;32;19973;-52
2021/01/26 06:58:28;;;;;;;;;;;;;;;14.72;37.85;99659.03;4414568;32;20385;-54
2021/01/26 07:00:54;;;;;;;;;;;;;;;15.10;37.21;99665.13;4413953;32;20425;-55
2021/01/26 07:03:20;;;;;;;;;;;;;;;15.29;36.84;99671.69;4400332;32;19996;-52
2021/01/26 07:05:46;;;;;;;;;;;;;;;15.40;36.45;99675.44;4405346;32;20369;-53
2021/01/26 07:08:11;;;;;;;;;;;;;;;15.44;36.46;99677.25;4416778;32;20006;-52
2021/01/26 07:10:37;;;;;;;;;;;;;;;15.45;36.48;99686.03;4402531;32;19981;-52
2021/01/26 07:13:03;;;;;;;;;;;;;;;15.52;36.41;99684.41;4402767;32;20012;-52
2021/01/26 07:15:29;;;;;;;;;;;;;;;15.49;36.38;99674.72;4416972;32;20002;-52
2021/01/26 07:17:55;;;;;;;;;;;;;;;15.44;36.40;99677.25;4416984;32;19946;-52
2021/01/26 07:20:21;;;;;;;;;;;;;;;15.46;36.56;99680.78;4416927;32;19954;-53
2021/01/26 07:22:47;;;;;;;;;;;;;;;15.49;36.56;99684.31;4404980;32;19965;-51
2021/01/26 07:25:13;;;;;;;;;;;;;;;15.56;36.45;99687.13;4402612;32;20635;-54
2021/01/26 07:27:39;;;;;;;;;;;;;;;15.57;36.45;99688.91;4413271;32;19982;-53
2021/01/26 07:30:04;;;;;;;;;;;;;;;15.59;36.38;99686.31;4416298;32;20335;-49
2021/01/26 07:32:30;;;;;;;;;;;;;;;15.62;36.36;99690.72;4407806;32;19965;-54
2021/01/26 07:34:56;;;;;;;;;;;;;;;15.64;36.34;99700.41;4401242;32;20390;-54
2021/01/26 07:37:22;;;;;;;;;;;;;;;15.59;36.50;99696.78;4410472;32;21122;-52
2021/01/26 07:39:48;;;;;;;;;;;;;;;15.62;36.44;99702.13;4416869;32;19982;-52
2021/01/26 07:42:14;;;;;;;;;;;;;;;15.65;36.37;99711.78;4416921;32;19984;-51
2021/01/26 07:44:40;;;;;;;;;;;;;;;15.63;36.42;99709.16;4416871;32;19988;-54
2021/01/26 07:47:06;;;;;;;;;;;;;;;15.65;36.37;99706.53;4416773;32;20054;-52
2021/01/26 07:49:32;;;;;;;;;;;;;;;15.61;36.40;99716.09;4416850;32;19969;-50
2021/01/26 07:51:57;;;;;;;;;;;;;;;15.53;36.59;99725.56;4413114;32;19978;-54
2021/01/26 07:54:23;;;;;;;;;;;;;;;15.45;36.73;99738.50;4388020;32;20396;-51
2021/01/26 07:56:49;;;;;;;;;;;;;;;15.45;36.67;99731.50;4405048;32;19949;-53
2021/01/26 07:59:15;;;;;;;;;;;;;;;15.36;36.90;99726.03;4416202;32;19942;-53
2021/01/26 08:01:41;;;;;;;;;;;;;;;15.26;37.10;99734.56;4415477;32;19950;-52
2021/01/26 08:04:07;;;;;;;;;;;;;;;15.13;37.39;99730.75;4401341;32;19950;-51
2021/01/26 08:06:33;;;;;;;;;;;;;;;15.12;37.39;99735.09;4402256;32;19964;-53
2021/01/26 08:08:59;;;;;;;;;;;;;;;15.18;37.33;99737.88;4416829;32;20089;-52
2021/01/26 08:11:25;;;;;;;;;;;;;;;15.33;37.06;99731.22;4416185;32;19970;-53
2021/01/26 08:13:51;;;;;;;;;;;;;;;15.42;36.88;99741.03;4416725;32;20595;-50
2021/01/26 08:16:17;;;;;;;;;;;;;;;15.48;36.78;99750.78;4416448;32;19946;-54
2021/01/26 08:18:43;;;;;;;;;;;;;;;15.56;36.69;99754.47;4415380;32;20033;-53
2021/01/26 08:21:08;;;;;;;;;;;;;;;15.63;36.57;99756.41;4416743;32;19998;-52
2021/01/26 08:23:35;;;;;;;;;;;;;;;15.67;36.49;99752.06;4405326;32;19958;-52
2021/01/26 08:26:00;;;;;;;;;;;;;;;15.66;36.48;99756.47;4401795;32;19984;-53
2021/01/26 08:28:26;;;;;;;;;;;;;;;15.66;36.51;99751.22;4412264;32;19973;-53
2021/01/26 08:30:52;;;;;;;;;;;;;;;15.71;36.44;99754.81;4420336;32;19969;-54
2021/01/26 08:33:18;;;;;;;;;;;;;;;15.73;36.39;99752.22;4411047;32;20006;-51
2021/01/26 08:35:44;;;;;;;;;;;;;;;15.74;36.41;99767.13;4404517;32;20344;-52
2021/01/26 08:38:10;;;;;;;;;;;;;;;15.81;36.24;99770.75;4411485;32;20019;-49
2021/01/26 08:40:36;;;;;;;;;;;;;;;15.73;36.46;99773.22;4418961;32;20368;-53
2021/01/26 08:43:02;;;;;;;;;;;;;;;15.80;36.36;99776.88;4419497;32;19965;-52
2021/01/26 08:45:28;;;;;;;;;;;;;;;15.82;36.25;99777.78;4419191;32;20001;-51
2021/01/26 08:47:54;;;;;;;;;;;;;;;15.80;36.37;99785.63;4418594;32;20364;-53
2021/01/26 08:50:20;;;;;;;;;;;;;;;15.80;36.36;99804.00;4417241;32;19953;-53
2021/01/26 08:52:46;;;;;;;;;;;;;;;15.78;36.39;99803.09;4416368;32;19951;-53
2021/01/26 08:55:12;;;;;;;;;;;;;;;15.85;36.26;99810.25;4403342;32;19954;-53
2021/01/26 08:57:40;;;;;;;;;;;;;;;15.82;36.29;99809.28;4406573;32;19957;-54
2021/01/26 09:00:06;;;;;;;;;;;;;;;15.78;36.43;99813.59;4419003;32;19964;-54
2021/01/26 09:02:32;;;;;;;;;;;;;;;15.84;36.32;99818.09;4419245;32;19962;-50
2021/01/26 09:04:58;;;;;;;;;;;;;;;15.83;36.34;99813.69;4404662;32;19992;-53
2021/01/26 09:07:23;;;;;;;;;;;;;;;15.87;36.24;99815.56;4403648;32;19955;-53
2021/01/26 09:09:49;;;;;;;;;;;;;;;15.85;36.21;99820.75;4418497;32;19989;-54
2021/01/26 09:12:15;;;;;;;;;;;;;;;15.84;36.22;99819.00;4419362;32;19954;-52
2021/01/26 09:14:41;;;;;;;;;;;;;;;15.88;36.21;99827.81;4419262;32;19998;-52
2021/01/26 09:17:07;;;;;;;;;;;;;;;15.91;36.13;99832.28;4419209;32;19998;-49
2021/01/26 09:19:33;;;;;;;;;;;;;;;15.84;36.31;99839.09;4418780;32;20358;-52
2021/01/26 09:21:59;;;;;;;;;;;;;;;15.86;36.39;99840.00;4420024;32;20004;-51
2021/01/26 09:24:25;;;;;;;;;;;;;;;15.78;36.52;99844.22;4407865;32;20054;-53
2021/01/26 09:26:51;;;;;;;;;;;;;;;15.71;36.62;99854.56;4403432;32;20590;-54
2021/01/26 09:29:16;;;;;;;;;;;;;;;15.65;36.82;99856.16;4411771;32;19950;-51
2021/01/26 09:31:42;;;;;;;;;;;;;;;15.67;36.76;99862.31;4418626;32;19954;-53
2021/01/26 09:34:08;;;;;;;;;;;;;;;15.63;36.77;99858.78;4411247;32;19954;-52
2021/01/26 09:36:34;;;;;;;;;;;;;;;15.69;36.70;99860.66;4403491;32;19968;-51
2021/01/26 09:39:00;;;;;;;;;;;;;;;15.69;36.73;99866.78;4409605;32;19972;-52
2021/01/26 09:41:26;;;;;;;;;;;;;;;15.71;36.66;99865.06;4419013;32;19965;-53
2021/01/26 09:43:52;;;;;;;;;;;;;;;15.77;36.58;99868.69;4413490;32;20561;-54
2021/01/26 09:46:18;;;;;;;;;;;;;;;15.78;36.59;99871.34;4403814;32;19968;-52
2021/01/26 09:48:44;;;;;;;;;;;;;;;15.87;36.46;99875.94;4406730;32;19968;-52
2021/01/26 09:51:09;;;;;;;;;;;;;;;15.90;36.40;99883.91;4418687;32;19954;-53
2021/01/26 09:53:35;;;;;;;;;;;;;;;15.91;36.32;99887.41;4416877;32;19987;-53
2021/01/26 09:56:01;;;;;;;;;;;;;;;15.89;36.42;99882.13;4404207;32;19950;-54
2021/01/26 09:58:27;;;;;;;;;;;;;;;15.91;36.32;99888.31;4403555;32;20001;-54
2021/01/26 10:00:53;;;;;;;;;;;;;;;15.93;36.27;99889.22;4418198;32;19950;-54
2021/01/26 10:03:19;;;;;;;;;;;;;;;15.91;36.33;99893.56;4418506;32;20012;-52
2021/01/26 10:05:45;;;;;;;;;;;;;;;15.94;36.33;99887.50;4404083;32;20029;-50
2021/01/26 10:08:11;;;;;;;;;;;;;;;15.96;36.28;99894.56;4403388;32;20597;-50
2021/01/26 10:10:37;;;;;;;;;;;;;;;15.99;36.21;99899.91;4416883;32;19950;-51
2021/01/26 10:13:03;;;;;;;;;;;;;;;15.98;36.28;99905.97;4417791;32;19989;-49
2021/01/26 10:15:35;;;;;;;;;;;;;;;15.94;36.28;99896.25;4418629;32;20002;-53
2021/01/26 10:18:01;;;;;;;;;;;;;;;15.95;36.37;99905.91;4418174;32;19978;-53
2021/01/26 10:20:27;;;;;;;;;;;;;;;15.97;36.37;99903.34;4406699;32;20739;-53
2021/01/26 10:22:53;;;;;;;;;;;;;;;15.99;36.28;99917.37;4403181;32;19981;-53
2021/01/26 10:25:19;;;;;;;;;;;;;;;15.99;36.29;99917.37;4412315;32;19993;-52
2021/01/26 10:27:45;;;;;;;;;;;;;;;15.96;36.36;99912.06;4418337;32;19964;-53
2021/01/26 10:30:11;;;;;;;;;;;;;;;15.99;36.23;99920.91;4409977;32;19976;-52
2021/01/26 10:32:36;;;;;;;;;;;;;;;15.97;36.35;99919.97;4403190;32;19946;-53
2021/01/26 10:35:02;;;;;;;;;;;;;;;15.95;36.43;99929.53;4409347;32;19973;-53
2021/01/26 10:37:30;;;;;;;;;;;;;;;15.94;36.42;99919.88;4417969;32;19989;-53
2021/01/26 10:39:55;;;;;;;;;;;;;;;15.91;36.52;99918.94;4412271;32;19954;-53
2021/01/26 10:42:21;;;;;;;;;;;;;;;15.94;36.46;99921.66;4402147;32;19984;-52
2021/01/26 10:44:47;;;;;;;;;;;;;;;16.00;36.28;99914.81;4412560;32;19958;-53
2021/01/26 10:47:13;;;;;;;;;;;;;;;16.01;36.22;99920.91;4401914;32;20336;-54
2021/01/26 10:49:39;;;;;;;;;;;;;;;16.02;36.24;99926.22;4404942;32;19975;-53
2021/01/26 10:52:05;;;;;;;;;;;;;;;16.01;36.25;99927.06;4417490;32;19954;-52
2021/01/26 10:54:31;;;;;;;;;;;;;;;16.01;36.22;99923.56;4417202;32;20423;-53
2021/01/26 10:56:57;;;;;;;;;;;;;;;15.98;36.34;99937.47;4403230;32;19983;-53
2021/01/26 10:59:23;;;;;;;;;;;;;;;16.01;36.41;99936.69;4401616;32;20445;-50
2021/01/26 11:01:49;;;;;;;;;;;;;;;16.01;36.43;99928.81;4418144;32;20045;-51
2021/01/26 11:04:15;;;;;;;;;;;;;;;15.89;36.56;99929.38;4417951;32;20323;-54
2021/01/26 11:06:40;;;;;;;;;;;;;;;15.85;36.71;99941.53;4404042;32;19980;-52
2021/01/26 11:09:06;;;;;;;;;;;;;;;15.78;36.84;99942.22;4401994;32;20299;-54
2021/01/26 11:11:32;;;;;;;;;;;;;;;15.84;36.73;99944.12;4415323;32;19965;-53
2021/01/26 11:13:58;;;;;;;;;;;;;;;15.98;36.45;99950.63;4412863;32;20341;-53
2021/01/26 11:16:24;;;;;;;;;;;;;;;15.29;36.39;99948.00;4412641;32;19957;-54
2021/01/26 11:18:50;;;;;;;;;;;;;;;15.41;37.19;99950.09;4417296;32;19957;-54
2021/01/26 11:21:16;;;;;;;;;;;;;;;15.56;36.97;99948.69;4411414;32;19983;-54
2021/01/26 11:23:42;;;;;;;;;;;;;;;15.63;37.01;99950.63;4414403;32;20020;-54
2021/01/26 11:26:08;;;;;;;;;;;;;;;15.70;36.83;99947.31;4409277;32;19977;-54
2021/01/26 11:28:34;;;;;;;;;;;;;;;15.86;36.38;99945.94;4406173;32;19955;-54
2021/01/26 11:31:00;;;;;;;;;;;;;;;15.95;36.29;99944.44;4410472;32;19967;-52
2021/01/26 11:33:26;;;;;;;;;;;;;;;15.99;36.23;99938.38;4410835;32;20013;-52
2021/01/26 11:35:52;;;;;;;;;;;;;;;16.04;36.19;99951.62;4407850;32;19954;-51
2021/01/26 11:38:18;;;;;;;;;;;;;;;16.05;36.16;99951.69;4409872;32;20025;-52
2021/01/26 11:40:44;;;;;;;;;;;;;;;16.06;36.02;99949.94;4410816;32;19961;-54
2021/01/26 11:43:10;;;;;;;;;;;;;;;16.04;36.10;99959.50;4412444;32;19969;-54
2021/01/26 11:45:36;;;;;;;;;;;;;;;16.04;36.06;99962.13;4410457;32;20002;-50
2021/01/26 11:48:02;;;;;;;;;;;;;;;16.04;36.04;99963.00;4412001;32;19994;-54
2021/01/26 11:50:28;;;;;;;;;;;;;;;16.07;36.20;99967.47;4408850;32;19996;-54
2021/01/26 11:52:54;;;;;;;;;;;;;;;16.06;36.11;99965.69;4410578;32;19964;-54
2021/01/26 11:55:20;;;;;;;;;;;;;;;16.07;36.09;99970.09;4409680;32;19946;-52
2021/01/26 11:57:46;;;;;;;;;;;;;;;16.06;36.08;99973.56;4410003;32;19939;-54
2021/01/26 12:00:11;;;;;;;;;;;;;;;16.07;36.10;99975.34;4408475;32;19981;-54
2021/01/26 12:02:37;;;;;;;;;;;;;;;16.07;36.17;99975.34;4411125;32;19965;-50
2021/01/26 12:05:03;;;;;;;;;;;;;;;16.07;36.13;99975.34;4408179;32;20384;-54
2021/01/26 12:07:29;;;;;;;;;;;;;;;16.07;36.23;99967.47;4411024;32;19950;-54
2021/01/26 12:09:55;;;;;;;;;;;;;;;16.06;36.20;99969.22;4410289;32;19954;-53
2021/01/26 12:12:21;;;;;;;;;;;;;;;16.10;36.13;99972.78;4409443;32;20287;-53
2021/01/26 12:14:47;;;;;;;;;;;;;;;16.10;36.10;99971.06;4410168;32;19953;-52
2021/01/26 12:17:13;;;;;;;;;;;;;;;16.08;36.18;99977.13;4409942;32;19973;-51
2021/01/26 12:19:38;;;;;;;;;;;;;;;16.09;36.12;99968.38;4410000;32;20716;-50
2021/01/26 12:22:04;;;;;;;;;;;;;;;16.12;36.11;99968.47;4408620;32;20296;-54
2021/01/26 12:24:30;;;;;;;;;;;;;;;16.12;36.06;99968.47;4410807;32;19950;-54
2021/01/26 12:26:56;;;;;;;;;;;;;;;16.10;36.13;99967.53;4409540;32;19950;-54
2021/01/26 12:29:22;;;;;;;;;;;;;;;16.10;36.13;99970.16;4409859;32;20314;-53
2021/01/26 12:31:48;;;;;;;;;;;;;;;16.10;36.21;99967.53;4408346;32;19955;-52
2021/01/26 12:34:14;;;;;;;;;;;;;;;16.09;36.28;99971.00;4400997;32;19988;-53
2021/01/26 12:36:39;;;;;;;;;;;;;;;16.10;36.30;99973.69;4401928;32;19992;-53
2021/01/26 12:39:06;;;;;;;;;;;;;;;16.02;36.42;99969.97;4403467;32;19989;-53
2021/01/26 12:41:31;;;;;;;;;;;;;;;16.00;36.50;99967.31;4403837;32;19992;-54